Time;durP1;ratioP1;P1;durP2;ratioP2;P2;SDS_P1;SDS_P2;PMS_P1;PMS_P2;Temp;Humidity;BMP_temperature;BMP_pressure;BME280_temperature;BME280_humidity;BME280_pressure;Samples;Min_cycle;Max_cycle;Signal;HPM_P1;HPM_P2
2022/02/10 00:21:32;;;;;;;13.40;7.80;;;4.50;99.90;;;;;;4953945;28;20174;-52
2022/02/10 00:34:44;;;;;;;11.57;8.17;;;4.40;99.90;;;;;;4946656;28;20213;-57
2022/02/10 00:37:12;;;;;;;8.87;7.90;;;4.30;99.90;;;;;;4953638;28;20671;-56
2022/02/10 00:40:06;;;;;;;9.87;8.63;;;4.30;99.90;;;;;;4953433;28;20190;-55
2022/02/10 00:42:32;;;;;;;12.37;9.23;;;4.30;99.90;;;;;;4953801;28;20197;-53
2022/02/10 00:44:59;;;;;;;11.60;9.00;;;4.30;99.90;;;;;;4953467;28;20230;-53
2022/02/10 00:47:27;;;;;;;10.97;8.67;;;4.30;99.90;;;;;;4953401;28;20269;-54
2022/02/10 00:49:52;;;;;;;9.83;8.60;;;4.30;99.90;;;;;;4953904;28;20265;-54
2022/02/10 00:52:19;;;;;;;12.73;8.47;;;4.20;99.90;;;;;;4953725;28;20210;-51
2022/02/10 00:54:44;;;;;;;12.10;8.10;;;4.20;99.90;;;;;;4953067;28;20206;-51
2022/02/10 00:57:12;;;;;;;9.27;7.50;;;4.20;99.90;;;;;;4953700;28;20645;-53
2022/02/10 01:00:04;;;;;;;10.73;8.20;;;4.20;99.90;;;;;;4953049;29;20529;-55
2022/02/10 01:13:10;;;;;;;10.43;8.80;;;4.10;99.90;;;;;;4953212;29;20189;-54
2022/02/10 01:32:20;;;;;;;11.33;9.37;;;3.80;99.90;;;;;;4912766;29;20203;-55
2022/02/10 01:34:51;;;;;;;10.60;8.53;;;3.80;99.90;;;;;;4911444;29;20204;-56
2022/02/10 01:37:17;;;;;;;10.30;9.10;;;3.70;99.90;;;;;;4915181;29;20591;-51
2022/02/10 01:39:49;;;;;;;12.07;9.40;;;3.70;99.90;;;;;;4915994;29;20183;-52
2022/02/10 02:03:19;;;;;;;10.20;8.27;;;3.80;99.90;;;;;;4896925;29;20188;-52
2022/02/10 02:04:24;;;;;;;12.93;9.13;;;3.70;99.90;;;;;;4956213;28;20233;-55
2022/02/10 02:06:51;;;;;;;9.70;8.53;;;3.70;99.90;;;;;;4955931;28;20225;-52
2022/02/10 02:09:18;;;;;;;11.67;9.00;;;3.70;99.90;;;;;;4955960;28;20258;-52
2022/02/10 02:11:54;;;;;;;11.30;8.70;;;3.70;99.90;;;;;;4955313;28;20205;-56
2022/02/10 02:14:22;;;;;;;10.90;8.53;;;3.70;99.90;;;;;;4955677;28;20212;-51
2022/02/10 02:16:53;;;;;;;9.87;8.47;;;3.70;99.90;;;;;;4955585;28;20174;-58
2022/02/10 02:19:20;;;;;;;10.87;8.37;;;3.70;99.90;;;;;;4955846;28;20254;-52
2022/02/10 02:21:46;;;;;;;9.43;7.97;;;3.70;99.90;;;;;;4955482;28;20178;-50
2022/02/10 02:24:19;;;;;;;10.00;8.03;;;3.70;99.90;;;;;;4955541;28;20198;-49
2022/02/10 02:26:44;;;;;;;9.83;8.17;;;3.60;99.90;;;;;;4955474;28;20193;-52
2022/02/10 02:29:12;;;;;;;9.73;7.40;;;3.60;99.90;;;;;;4955586;28;20182;-55
2022/02/10 02:31:44;;;;;;;9.33;7.67;;;3.60;99.90;;;;;;4955421;28;20667;-51
2022/02/10 03:07:00;;;;;;;10.80;9.70;;;3.30;99.90;;;;;;4955018;29;20182;-51
2022/02/10 03:09:28;;;;;;;11.03;9.50;;;3.30;99.90;;;;;;4954700;29;20147;-53
2022/02/10 03:11:58;;;;;;;12.53;10.27;;;3.30;99.90;;;;;;4955059;29;20186;-56
2022/02/10 03:14:37;;;;;;;12.20;10.10;;;3.30;99.90;;;;;;4954687;28;20249;-52
2022/02/10 03:20:04;;;;;;;12.50;10.63;;;3.20;99.90;;;;;;4954747;28;20197;-51
2022/02/10 04:01:13;;;;;;;11.07;9.20;;;3.00;99.90;;;;;;4931884;29;20191;-56
2022/02/10 04:11:43;;;;;;;11.57;7.80;;;2.90;99.90;;;;;;4953914;29;20417;-56
2022/02/10 04:16:42;;;;;;;9.63;7.87;;;2.90;99.90;;;;;;4953846;28;20198;-51
2022/02/10 04:22:00;;;;;;;10.43;8.73;;;2.80;99.90;;;;;;4953913;29;20882;-52
2022/02/10 04:24:41;;;;;;;9.13;8.10;;;2.70;99.90;;;;;;4953639;28;20206;-54
2022/02/10 04:30:02;;;;;;;10.03;7.50;;;2.70;99.90;;;;;;4953407;29;20671;-56
2022/02/10 04:59:28;;;;;;;10.83;9.20;;;2.60;99.90;;;;;;4953142;28;20185;-55
2022/02/10 05:02:23;;;;;;;22.47;18.37;;;2.50;99.90;;;;;;4953336;28;20547;-52
2022/02/10 05:07:47;;;;;;;11.77;9.87;;;2.30;99.90;;;;;;4953387;28;20492;-57
2022/02/10 05:21:08;;;;;;;11.13;8.30;;;1.90;99.90;;;;;;4957159;28;20421;-57
2022/02/10 05:31:31;;;;;;;11.00;9.07;;;2.00;99.90;;;;;;4956826;28;20508;-55
2022/02/10 05:34:41;;;;;;;10.23;8.03;;;2.10;99.90;;;;;;4948930;28;20424;-54
2022/02/10 05:37:07;;;;;;;10.10;7.90;;;2.20;99.90;;;;;;4956575;28;20454;-57
2022/02/10 05:39:37;;;;;;;11.83;8.40;;;2.20;99.90;;;;;;4956548;28;20444;-55
2022/02/10 06:58:10;;;;;;;9.17;7.70;;;2.00;99.90;;;;;;4954592;28;20432;-51
2022/02/10 07:11:19;;;;;;;14.67;9.50;;;2.30;99.90;;;;;;4954645;28;20500;-59
2022/02/10 07:49:10;;;;;;;6.53;5.70;;;10.30;99.90;;;;;;4954385;28;20627;-53
2022/02/10 07:54:20;;;;;;;6.30;4.97;;;12.10;99.90;;;;;;4954343;28;20509;-53
2022/02/10 09:11:59;;;;;;;9.13;8.23;;;22.40;58.20;;;;;;4958304;28;20185;-55
2022/02/10 09:56:57;;;;;;;4.45;4.15;;;36.60;39.90;;;;;;4994570;28;20794;-61
2022/02/10 09:59:33;;;;;;;4.35;4.05;;;37.20;38.10;;;;;;4994040;28;20605;-60
2022/02/10 10:02:20;;;;;;;4.25;3.85;;;37.50;37.20;;;;;;4992808;28;20176;-62
2022/02/10 10:05:04;;;;;;;3.85;3.55;;;38.10;35.70;;;;;;4988036;28;20220;-60
2022/02/10 10:16:18;;;;;;;3.17;2.97;;;39.50;33.10;;;;;;4974881;28;20646;-61
2022/02/10 10:24:24;;;;;;;5.18;4.78;;;38.20;33.00;;;;;;4974966;28;20194;-59
2022/02/10 10:48:25;;;;;;;4.53;4.20;;;38.40;33.30;;;;;;4988614;28;20224;-61
2022/02/10 10:49:52;;;;;;;5.63;5.03;;;39.50;32.50;;;;;;4993521;28;20217;-62
2022/02/10 10:52:27;;;;;;;5.97;5.47;;;39.70;32.00;;;;;;4994013;28;20216;-60
2022/02/10 10:55:31;;;;;;;5.47;5.00;;;39.30;31.20;;;;;;4991945;28;20176;-60
2022/02/10 10:57:46;;;;;;;4.10;3.80;;;39.40;31.40;;;;;;4981348;28;20255;-61
2022/02/10 11:00:37;;;;;;;5.18;4.68;;;39.50;31.50;;;;;;4993238;28;20168;-62
2022/02/10 11:07:06;;;;;;;3.78;3.53;;;39.30;31.70;;;;;;4993859;28;20655;-62
2022/02/10 11:24:39;;;;;;;5.40;4.18;;;41.20;29.30;;;;;;4973843;28;20188;-62
2022/02/10 11:48:15;;;;;;;4.40;3.70;;;42.00;27.70;;;;;;4949521;28;20195;-62
2022/02/10 12:33:55;;;;;;;4.68;4.28;;;34.50;30.90;;;;;;4992194;28;20183;-62
2022/02/10 14:17:51;;;;;;;5.30;4.60;;;18.90;48.40;;;;;;4914309;29;20701;-63
2022/02/10 14:28:11;;;;;;;5.03;4.10;;;20.20;47.50;;;;;;4915230;29;20728;-61
2022/02/10 14:30:38;;;;;;;4.30;3.90;;;20.70;47.50;;;;;;4915436;29;20309;-64
2022/02/10 14:33:04;;;;;;;4.55;4.13;;;21.20;47.80;;;;;;4915346;29;20236;-61
2022/02/10 14:35:36;;;;;;;6.28;4.82;;;21.60;45.30;;;;;;4915180;29;20693;-63
2022/02/10 15:20:44;;;;;;;4.90;4.40;;;19.20;48.90;;;;;;4914317;29;20629;-59
2022/02/10 15:54:29;;;;;;;5.60;4.20;;;15.50;57.00;;;;;;5027246;28;20267;-59
2022/02/10 16:18:22;;;;;;;8.90;7.73;;;14.60;59.80;;;;;;5071212;28;20230;-59
2022/02/10 16:20:57;;;;;;;10.77;8.47;;;14.40;60.00;;;;;;5071244;28;20180;-61
2022/02/10 16:23:24;;;;;;;8.43;7.17;;;14.20;60.50;;;;;;5064762;28;20615;-56
2022/02/10 16:26:07;;;;;;;6.97;6.23;;;14.10;61.10;;;;;;5051330;28;20155;-62
2022/02/10 16:28:35;;;;;;;7.33;6.60;;;13.90;61.60;;;;;;5051271;28;20156;-58
2022/02/10 16:31:01;;;;;;;7.77;6.67;;;14.10;62.90;;;;;;5051164;28;20280;-59
2022/02/10 16:33:26;;;;;;;10.23;7.97;;;13.50;63.00;;;;;;5051320;28;20628;-59
2022/02/10 16:35:52;;;;;;;14.43;8.60;;;13.30;63.80;;;;;;5051417;28;20174;-58
2022/02/10 16:38:17;;;;;;;10.80;7.93;;;13.10;64.20;;;;;;5051330;28;20195;-59
2022/02/10 16:40:43;;;;;;;9.63;7.20;;;13.00;65.20;;;;;;5064176;28;20708;-58
2022/02/10 16:43:09;;;;;;;8.77;7.10;;;12.80;65.80;;;;;;5071244;28;20241;-59
2022/02/10 16:45:35;;;;;;;9.50;7.30;;;12.70;66.50;;;;;;5071190;28;20173;-59
2022/02/10 16:48:01;;;;;;;8.90;7.80;;;12.60;67.10;;;;;;5071402;28;20476;-59
2022/02/10 16:50:26;;;;;;;10.63;8.57;;;12.50;67.80;;;;;;5071119;28;20182;-61
2022/02/10 16:53:03;;;;;;;10.30;8.07;;;12.40;68.60;;;;;;5071555;28;20193;-61
2022/02/10 16:58:09;;;;;;;8.23;6.70;;;12.10;69.70;;;;;;5071234;28;20173;-59
2022/02/10 17:19:15;;;;;;;5.60;5.00;;;11.60;73.50;;;;;;5074379;28;20188;-56
2022/02/10 17:46:03;;;;;;;9.80;6.50;;;11.10;78.50;;;;;;4973355;28;20513;-59
2022/02/10 17:51:41;;;;;;;10.03;5.90;;;11.00;79.30;;;;;;4992902;28;20208;-52
2022/02/10 17:54:07;;;;;;;7.53;6.40;;;11.10;79.90;;;;;;4993117;28;20169;-54
2022/02/10 17:56:33;;;;;;;7.10;6.07;;;11.10;80.60;;;;;;4992605;28;20169;-53
2022/02/10 17:58:59;;;;;;;8.10;6.13;;;11.10;81.10;;;;;;4992865;28;20181;-58
2022/02/10 18:01:25;;;;;;;8.50;6.77;;;11.10;81.30;;;;;;4992656;28;20214;-54
2022/02/10 18:03:51;;;;;;;9.70;6.70;;;11.00;81.50;;;;;;4992852;28;20193;-58
2022/02/10 18:13:55;;;;;;;6.77;6.07;;;11.00;83.10;;;;;;5054492;28;20694;-55
2022/02/10 18:16:26;;;;;;;6.60;5.60;;;11.00;83.70;;;;;;5053881;28;20167;-52
2022/02/10 18:18:57;;;;;;;6.00;5.40;;;11.10;83.70;;;;;;5052769;28;20194;-59
2022/02/10 18:21:36;;;;;;;6.97;5.80;;;11.00;84.30;;;;;;5053907;28;20266;-55
2022/02/10 18:24:19;;;;;;;6.73;6.00;;;11.10;84.90;;;;;;5054263;28;20226;-55
2022/02/10 19:02:30;;;;;;;6.60;5.90;;;10.30;91.10;;;;;;5053558;28;20201;-57
2022/02/10 19:10:04;;;;;;;9.40;7.17;;;10.20;91.80;;;;;;5053014;28;20242;-56
2022/02/10 19:12:40;;;;;;;7.83;6.50;;;10.10;92.20;;;;;;5053190;28;20175;-56
2022/02/10 19:15:16;;;;;;;7.70;6.17;;;10.00;92.60;;;;;;5052258;28;20665;-54
2022/02/10 19:17:42;;;;;;;9.23;6.50;;;9.80;93.70;;;;;;5052926;28;20709;-58
2022/02/10 19:20:09;;;;;;;8.00;6.43;;;9.80;94.10;;;;;;5052746;28;20202;-56
2022/02/10 19:22:35;;;;;;;8.80;6.60;;;9.70;94.50;;;;;;5052605;28;20273;-54
2022/02/10 19:25:01;;;;;;;7.77;6.60;;;9.70;95.30;;;;;;5052768;28;20217;-58
2022/02/10 19:27:26;;;;;;;8.83;6.93;;;9.70;95.80;;;;;;5052783;28;20278;-60
2022/02/10 19:29:57;;;;;;;9.83;7.50;;;9.60;96.20;;;;;;5034364;28;20683;-55
2022/02/10 19:32:25;;;;;;;8.13;6.33;;;9.50;96.90;;;;;;5052317;28;20214;-57
2022/02/10 19:34:53;;;;;;;9.37;6.83;;;9.20;98.00;;;;;;5052680;28;20663;-55
2022/02/10 19:37:19;;;;;;;9.83;7.30;;;8.90;98.90;;;;;;5052635;28;20547;-57
2022/02/10 19:39:50;;;;;;;8.40;6.43;;;8.70;99.90;;;;;;5052508;28;20250;-59
2022/02/10 19:42:16;;;;;;;9.13;6.90;;;8.60;99.90;;;;;;5052401;28;20241;-56
2022/02/10 19:44:41;;;;;;;10.97;7.20;;;8.50;99.90;;;;;;5052401;28;20198;-55
2022/02/10 19:47:07;;;;;;;9.40;6.93;;;8.60;99.90;;;;;;5052511;28;20225;-56
2022/02/10 19:49:35;;;;;;;9.43;7.20;;;8.70;99.90;;;;;;5052210;28;20243;-56
2022/02/10 19:52:00;;;;;;;8.40;6.83;;;8.80;99.90;;;;;;5076471;28;20205;-53
2022/02/10 19:54:30;;;;;;;11.67;7.07;;;8.80;99.90;;;;;;5092326;28;20162;-53
2022/02/10 19:56:57;;;;;;;9.13;6.60;;;8.90;99.90;;;;;;5074297;28;20174;-56
2022/02/10 19:59:26;;;;;;;8.57;6.83;;;8.80;99.90;;;;;;5054523;28;20171;-58
2022/02/10 20:01:53;;;;;;;8.73;7.07;;;8.80;99.90;;;;;;5054577;28;20182;-59
2022/02/10 20:04:20;;;;;;;9.93;7.43;;;8.70;99.90;;;;;;5063760;28;20722;-55
2022/02/10 20:06:47;;;;;;;8.77;7.20;;;8.70;99.90;;;;;;5071884;28;20163;-53
2022/02/10 20:09:14;;;;;;;9.27;7.20;;;8.70;99.90;;;;;;5071651;28;20337;-58
2022/02/10 20:11:39;;;;;;;8.23;7.10;;;8.60;99.90;;;;;;5071824;28;20179;-55
2022/02/10 20:14:05;;;;;;;10.93;7.53;;;8.50;99.90;;;;;;5071814;28;20689;-56
2022/02/10 20:16:31;;;;;;;9.67;7.83;;;8.40;99.90;;;;;;5071500;28;20526;-53
2022/02/10 20:18:56;;;;;;;9.43;7.07;;;8.40;99.90;;;;;;5071347;28;20196;-56
2022/02/10 20:21:22;;;;;;;9.30;7.53;;;8.30;99.90;;;;;;5069080;28;20210;-58
2022/02/10 20:23:48;;;;;;;10.23;7.50;;;8.20;99.90;;;;;;5051922;28;20202;-54
2022/02/10 20:26:14;;;;;;;8.20;7.20;;;8.10;99.90;;;;;;5080513;28;20193;-61
2022/02/10 20:28:42;;;;;;;10.47;7.67;;;8.00;99.90;;;;;;5071657;28;20173;-54
2022/02/10 20:31:08;;;;;;;9.10;7.43;;;8.10;99.90;;;;;;5069629;28;20252;-55
2022/02/10 20:33:34;;;;;;;9.50;7.63;;;8.10;99.90;;;;;;5058898;28;20497;-54
2022/02/10 20:36:03;;;;;;;9.87;8.23;;;8.00;99.90;;;;;;5070610;28;20173;-59
2022/02/10 20:38:30;;;;;;;10.37;8.20;;;7.90;99.90;;;;;;5051330;28;20167;-57
2022/02/10 20:41:03;;;;;;;9.83;7.73;;;7.90;99.90;;;;;;5051224;28;20544;-56
2022/02/10 20:43:29;;;;;;;9.50;8.00;;;7.90;99.90;;;;;;5051247;28;20651;-58
2022/02/10 20:45:59;;;;;;;12.07;7.73;;;8.00;99.90;;;;;;5033914;28;20167;-60
2022/02/10 20:48:27;;;;;;;8.83;7.93;;;8.00;99.90;;;;;;5060514;28;20631;-58
2022/02/10 20:50:56;;;;;;;9.47;7.43;;;8.10;99.90;;;;;;5051437;28;20598;-58
2022/02/10 20:53:31;;;;;;;8.40;7.07;;;8.20;99.90;;;;;;5062200;28;20163;-58
2022/02/10 20:56:00;;;;;;;9.37;7.90;;;8.40;99.90;;;;;;5071521;28;20162;-56
2022/02/10 20:58:28;;;;;;;11.93;8.83;;;8.30;99.90;;;;;;5070905;28;20160;-59
2022/02/10 21:00:58;;;;;;;9.00;7.30;;;8.10;99.90;;;;;;5071386;28;20197;-61
2022/02/10 21:03:26;;;;;;;13.37;8.50;;;8.00;99.90;;;;;;5071546;28;20166;-59
2022/02/10 21:06:01;;;;;;;11.60;8.33;;;7.80;99.90;;;;;;5072182;28;20782;-57
2022/02/10 21:10:52;;;;;;;9.97;7.57;;;7.80;99.90;;;;;;5071073;28;20190;-58
2022/02/10 21:13:18;;;;;;;11.20;7.37;;;7.80;99.90;;;;;;5071541;28;20166;-58
2022/02/10 21:15:46;;;;;;;9.37;7.67;;;7.90;99.90;;;;;;5071094;28;20163;-55
2022/02/10 21:18:14;;;;;;;11.07;8.23;;;8.00;99.90;;;;;;5071299;28;20174;-56
2022/02/10 21:20:41;;;;;;;10.40;7.60;;;8.10;99.90;;;;;;5070764;28;20182;-60
2022/02/10 21:25:37;;;;;;;10.83;8.20;;;8.40;99.90;;;;;;5071014;28;20851;-57
2022/02/10 21:28:10;;;;;;;12.90;8.07;;;8.40;99.90;;;;;;5071171;28;20253;-59
2022/02/10 21:30:36;;;;;;;9.53;8.20;;;8.30;99.90;;;;;;5070992;28;20167;-59
2022/02/10 21:33:04;;;;;;;13.50;8.47;;;8.30;99.90;;;;;;5070759;28;20163;-56
2022/02/10 21:35:45;;;;;;;9.23;8.07;;;8.20;99.90;;;;;;5051027;28;20178;-58
2022/02/10 21:38:20;;;;;;;11.63;8.10;;;8.10;99.90;;;;;;5050924;28;20163;-60
2022/02/10 21:41:37;;;;;;;10.50;8.37;;;8.00;99.90;;;;;;5051101;28;20182;-57
2022/02/10 21:44:42;;;;;;;11.63;7.77;;;7.90;99.90;;;;;;5067161;28;20187;-58
2022/02/10 21:54:56;;;;;;;10.60;7.90;;;8.40;99.90;;;;;;5060941;28;20185;-59
2022/02/10 21:57:35;;;;;;;8.77;7.33;;;8.50;99.90;;;;;;5039523;28;20171;-57
2022/02/10 22:00:29;;;;;;;10.17;8.07;;;8.60;99.90;;;;;;5053600;28;20173;-61
2022/02/10 22:10:45;;;;;;;10.63;8.10;;;8.20;99.90;;;;;;5039244;28;20238;-60
2022/02/10 22:21:13;;;;;;;8.83;7.70;;;7.70;99.90;;;;;;5018106;28;20183;-61
2022/02/10 22:23:43;;;;;;;10.87;7.87;;;7.70;99.90;;;;;;4996356;28;20183;-60
2022/02/10 22:26:17;;;;;;;10.23;8.03;;;7.70;99.90;;;;;;5013325;28;20186;-62
2022/02/10 22:28:52;;;;;;;8.67;7.50;;;7.70;99.90;;;;;;4996191;28;20230;-59
2022/02/10 22:36:26;;;;;;;10.60;7.60;;;8.00;99.90;;;;;;5013519;28;20176;-61
2022/02/10 22:38:54;;;;;;;9.50;7.10;;;8.00;99.90;;;;;;5013684;28;20180;-61
2022/02/10 22:41:20;;;;;;;9.27;7.30;;;8.00;99.90;;;;;;5012733;28;20180;-62
2022/02/10 22:43:51;;;;;;;10.03;7.47;;;8.20;99.90;;;;;;5013484;28;20211;-56
2022/02/10 22:46:19;;;;;;;10.77;7.87;;;8.30;99.90;;;;;;5013795;28;20223;-59
2022/02/10 22:48:46;;;;;;;9.97;8.40;;;8.40;99.90;;;;;;4996459;28;20746;-58
2022/02/10 22:51:14;;;;;;;10.60;8.00;;;8.50;99.90;;;;;;5013374;28;20180;-59
2022/02/10 22:53:40;;;;;;;10.87;8.50;;;8.50;99.90;;;;;;5013368;28;20207;-57
2022/02/10 22:56:10;;;;;;;10.97;8.23;;;8.50;99.90;;;;;;5012102;28;20227;-60
2022/02/10 22:58:40;;;;;;;10.83;8.70;;;8.50;99.90;;;;;;5013629;28;20172;-56
2022/02/10 23:01:07;;;;;;;10.77;8.40;;;8.40;99.90;;;;;;5012726;28;20173;-59
2022/02/10 23:03:34;;;;;;;10.73;7.90;;;8.50;99.90;;;;;;5011444;28;20638;-59
2022/02/10 23:06:00;;;;;;;11.27;8.47;;;8.50;99.90;;;;;;4978546;28;20724;-58
2022/02/10 23:08:26;;;;;;;11.80;8.30;;;8.50;99.90;;;;;;5012090;28;20264;-54
2022/02/10 23:10:52;;;;;;;10.17;8.00;;;8.50;99.90;;;;;;5013211;28;20185;-56
2022/02/10 23:13:21;;;;;;;12.87;8.50;;;8.40;99.90;;;;;;5011768;28;20642;-60
2022/02/10 23:15:48;;;;;;;10.43;7.83;;;8.40;99.90;;;;;;5012945;28;20200;-56
2022/02/10 23:18:20;;;;;;;10.27;8.13;;;8.30;99.90;;;;;;4995786;28;20267;-56
2022/02/10 23:20:47;;;;;;;10.20;7.93;;;8.20;99.90;;;;;;5011875;28;20168;-58
2022/02/10 23:23:14;;;;;;;10.53;7.70;;;8.20;99.90;;;;;;5011804;28;20184;-57
2022/02/10 23:25:42;;;;;;;9.63;7.03;;;8.10;99.90;;;;;;4975820;28;20588;-60
2022/02/10 23:28:11;;;;;;;10.23;7.50;;;8.00;99.90;;;;;;5011588;28;20200;-59
2022/02/10 23:30:37;;;;;;;11.67;7.80;;;8.00;99.90;;;;;;5011632;28;20176;-57
2022/02/10 23:33:21;;;;;;;9.67;7.67;;;7.00;99.90;;;;;;4995303;28;20248;-54
2022/02/10 23:38:40;;;;;;;12.00;7.37;;;8.00;99.90;;;;;;5013101;28;20187;-57
2022/02/10 23:43:45;;;;;;;10.10;7.77;;;8.20;99.90;;;;;;5011497;28;20188;-56
2022/02/10 23:46:11;;;;;;;10.77;7.60;;;8.30;99.90;;;;;;5012262;28;20192;-59
2022/02/10 23:48:37;;;;;;;10.77;8.07;;;8.40;99.90;;;;;;5012052;28;20203;-58
2022/02/10 23:51:03;;;;;;;10.83;7.73;;;8.40;99.90;;;;;;5011264;28;20169;-56
2022/02/10 23:53:30;;;;;;;12.17;8.50;;;8.50;99.90;;;;;;5012523;28;20200;-58
2022/02/10 23:55:58;;;;;;;11.23;7.77;;;8.50;99.90;;;;;;5012430;28;20271;-58
